Time;durP1;ratioP1;P1;durP2;ratioP2;P2;SDS_P1;SDS_P2;PMS_P1;PMS_P2;Temp;Humidity;BMP_temperature;BMP_pressure;BME280_temperature;BME280_humidity;BME280_pressure;Samples;Min_cycle;Max_cycle;Signal;HPM_P1;HPM_P2
2021/12/29 00:01:04;;;;;;;127.35;32.65;;;5.60;99.90;;;;;;4958566;28;20528;-94
2021/12/29 00:03:30;;;;;;;142.55;34.22;;;5.70;99.90;;;;;;4958261;28;20046;-93
2021/12/29 00:05:56;;;;;;;181.95;37.80;;;5.70;99.90;;;;;;4974433;28;20054;-95
2021/12/29 00:08:21;;;;;;;221.38;41.42;;;5.80;99.90;;;;;;4973967;28;20494;-94
2021/12/29 00:10:54;;;;;;;159.02;35.88;;;6.80;99.90;;;;;;4974592;28;20041;-93
2021/12/29 00:13:21;;;;;;;136.03;32.90;;;5.80;99.90;;;;;;4973924;28;20074;-93
2021/12/29 00:15:47;;;;;;;143.35;32.35;;;5.90;99.90;;;;;;4974418;28;20302;-93
2021/12/29 00:18:12;;;;;;;124.50;28.95;;;5.90;99.90;;;;;;4973813;28;20260;-93
2021/12/29 00:20:38;;;;;;;114.45;29.00;;;5.80;99.90;;;;;;4973857;28;20142;-93
2021/12/29 00:23:07;;;;;;;145.98;30.10;;;5.80;99.90;;;;;;4958523;28;20050;-94
2021/12/29 00:25:33;;;;;;;165.15;33.65;;;5.90;99.90;;;;;;4974075;28;20081;-92
2021/12/29 00:27:59;;;;;;;162.27;31.20;;;5.80;99.90;;;;;;4973975;28;20082;-94
2021/12/29 00:30:26;;;;;;;116.20;28.75;;;5.80;99.90;;;;;;4973363;28;20129;-92
2021/12/29 00:32:52;;;;;;;114.45;27.35;;;5.80;99.90;;;;;;4957460;28;20054;-93
2021/12/29 00:35:18;;;;;;;114.30;25.77;;;5.80;99.90;;;;;;4972604;28;20053;-91
2021/12/29 00:37:44;;;;;;;119.50;26.27;;;5.80;99.90;;;;;;4973424;28;20113;-93
2021/12/29 00:40:11;;;;;;;92.93;21.70;;;6.50;99.90;;;;;;4958454;28;20097;-93
2021/12/29 00:42:38;;;;;;;63.20;18.73;;;5.80;99.90;;;;;;4957153;28;20054;-94
2021/12/29 00:45:04;;;;;;;65.35;18.85;;;5.80;99.90;;;;;;4957770;28;20050;-95
2021/12/29 00:47:32;;;;;;;71.10;20.38;;;5.80;99.90;;;;;;4973530;28;20524;-93
2021/12/29 00:50:00;;;;;;;60.67;18.33;;;5.90;99.90;;;;;;4957303;28;20042;-94
2021/12/29 00:52:25;;;;;;;75.82;20.40;;;6.30;99.90;;;;;;4957917;28;20066;-94
2021/12/29 00:54:52;;;;;;;79.57;20.45;;;5.90;99.90;;;;;;4973593;28;20674;-93
2021/12/29 00:57:17;;;;;;;74.15;19.95;;;6.40;99.90;;;;;;4958330;28;20050;-93
2021/12/29 00:59:45;;;;;;;99.75;21.33;;;5.90;99.90;;;;;;4974196;28;20516;-94
2021/12/29 01:02:11;;;;;;;99.47;19.73;;;5.90;99.90;;;;;;4974114;28;20064;-93
2021/12/29 01:04:37;;;;;;;105.47;21.27;;;5.90;99.90;;;;;;4973686;28;20042;-93
2021/12/29 01:07:04;;;;;;;107.95;22.30;;;5.90;99.90;;;;;;4976077;28;20138;-94
2021/12/29 01:09:30;;;;;;;116.05;21.65;;;6.10;99.90;;;;;;4992896;28;20084;-93
2021/12/29 01:11:57;;;;;;;116.30;22.75;;;5.90;99.90;;;;;;4978691;28;20058;-96
2021/12/29 01:14:26;;;;;;;139.38;24.38;;;5.90;99.90;;;;;;4979619;28;20128;-96
2021/12/29 01:16:52;;;;;;;128.13;22.42;;;5.90;99.90;;;;;;4979338;28;20105;-96
2021/12/29 01:19:21;;;;;;;105.18;21.33;;;5.90;99.90;;;;;;4990289;28;20048;-96
2021/12/29 01:21:50;;;;;;;135.20;22.63;;;6.40;99.90;;;;;;4971100;28;20081;-96
2021/12/29 01:24:17;;;;;;;139.82;24.67;;;6.60;99.90;;;;;;4984540;28;20050;-96
2021/12/29 01:26:43;;;;;;;165.73;24.77;;;6.00;99.90;;;;;;4964063;28;20037;-94
2021/12/29 01:29:11;;;;;;;142.20;24.42;;;6.40;99.90;;;;;;4977209;28;20050;-94
2021/12/29 01:31:37;;;;;;;136.48;23.48;;;6.00;99.90;;;;;;4977054;28;20050;-95
2021/12/29 01:34:05;;;;;;;146.45;25.25;;;6.00;99.90;;;;;;4976314;28;20061;-94
2021/12/29 01:36:32;;;;;;;126.38;24.58;;;6.00;99.90;;;;;;4976577;28;20132;-95
2021/12/29 01:38:58;;;;;;;140.95;25.63;;;6.40;99.90;;;;;;4976081;28;20034;-95
2021/12/29 01:41:24;;;;;;;137.82;25.95;;;6.00;99.90;;;;;;4973132;28;20057;-94
2021/12/29 01:43:50;;;;;;;121.28;25.33;;;6.10;99.90;;;;;;4973288;28;20394;-94
2021/12/29 01:46:16;;;;;;;140.30;27.17;;;6.10;99.90;;;;;;4955454;28;20046;-94
2021/12/29 01:48:42;;;;;;;118.03;25.52;;;6.20;99.90;;;;;;4956876;28;20050;-96
2021/12/29 01:51:07;;;;;;;110.05;24.90;;;6.30;99.90;;;;;;4956598;28;20054;-94
2021/12/29 01:53:34;;;;;;;127.10;25.80;;;6.20;99.90;;;;;;4957318;28;20060;-95
2021/12/29 01:56:01;;;;;;;123.82;24.92;;;6.90;99.90;;;;;;4962067;28;20082;-96
2021/12/29 01:58:27;;;;;;;144.70;27.67;;;6.30;99.90;;;;;;4957330;28;20049;-96
2021/12/29 02:00:59;;;;;;;196.73;31.42;;;6.20;99.90;;;;;;4960589;28;20093;-96
2021/12/29 02:03:25;;;;;;;194.18;30.85;;;6.30;99.90;;;;;;4956701;28;20042;-95
2021/12/29 02:05:53;;;;;;;177.32;30.92;;;6.30;99.90;;;;;;4956482;28;20116;-94
2021/12/29 02:08:22;;;;;;;257.05;33.38;;;6.30;99.90;;;;;;4956744;28;20046;-94
2021/12/29 02:10:48;;;;;;;221.30;31.92;;;6.70;99.90;;;;;;4956467;28;20038;-94
2021/12/29 02:13:15;;;;;;;159.15;29.55;;;6.30;99.90;;;;;;4956547;28;20057;-93
2021/12/29 02:15:41;;;;;;;195.07;32.17;;;6.30;99.90;;;;;;4956732;28;20053;-94
2021/12/29 02:18:13;;;;;;;221.63;33.90;;;6.30;99.90;;;;;;4962000;28;20081;-93
2021/12/29 02:20:41;;;;;;;247.90;35.50;;;6.30;99.90;;;;;;4975860;28;20038;-95
2021/12/29 02:23:17;;;;;;;256.35;35.22;;;6.40;99.90;;;;;;4976071;28;20049;-94
2021/12/29 02:25:50;;;;;;;243.77;35.95;;;6.40;99.90;;;;;;4975981;28;20057;-94
2021/12/29 02:28:22;;;;;;;196.77;32.60;;;6.30;99.90;;;;;;4975424;28;20049;-93
2021/12/29 02:30:48;;;;;;;245.15;36.55;;;6.30;99.90;;;;;;4975741;28;20037;-93
2021/12/29 02:33:15;;;;;;;212.02;34.17;;;7.00;99.90;;;;;;4975270;28;20046;-94
2021/12/29 02:35:42;;;;;;;182.95;32.00;;;6.30;99.90;;;;;;4975923;28;20485;-94
2021/12/29 02:38:17;;;;;;;196.70;31.92;;;6.30;99.90;;;;;;4976168;28;20038;-96
2021/12/29 02:40:48;;;;;;;199.50;31.92;;;6.30;99.90;;;;;;4976195;28;20493;-95
2021/12/29 02:43:19;;;;;;;119.90;25.58;;;6.30;99.90;;;;;;4975608;28;20046;-94
2021/12/29 02:45:49;;;;;;;154.60;27.05;;;6.30;99.90;;;;;;4976044;28;20050;-94
2021/12/29 02:48:15;;;;;;;96.45;20.73;;;6.40;99.90;;;;;;4975429;28;20050;-95
2021/12/29 02:50:42;;;;;;;116.00;20.70;;;6.40;99.90;;;;;;4976324;28;20045;-94
2021/12/29 02:53:09;;;;;;;86.75;18.88;;;6.40;99.90;;;;;;4975933;28;20050;-94
2021/12/29 02:55:35;;;;;;;91.03;18.80;;;6.50;99.90;;;;;;4975165;28;20042;-94
2021/12/29 02:58:01;;;;;;;78.53;17.38;;;6.40;99.90;;;;;;4980267;28;20052;-96
2021/12/29 03:00:26;;;;;;;72.55;16.35;;;6.40;99.90;;;;;;4984128;28;20042;-96
2021/12/29 03:02:52;;;;;;;84.95;17.90;;;6.50;99.90;;;;;;4970364;28;20045;-96
2021/12/29 03:05:20;;;;;;;84.22;17.63;;;6.50;99.90;;;;;;4991441;28;20090;-96
2021/12/29 03:07:50;;;;;;;90.00;18.10;;;7.20;99.90;;;;;;4982220;28;20600;-96
2021/12/29 03:10:16;;;;;;;94.75;19.35;;;6.50;99.90;;;;;;4964376;28;20046;-96
2021/12/29 03:12:41;;;;;;;93.00;18.77;;;7.00;99.90;;;;;;4960457;28;20050;-94
2021/12/29 03:15:08;;;;;;;126.70;21.20;;;6.50;99.90;;;;;;4959703;28;20536;-95
2021/12/29 03:17:33;;;;;;;100.15;19.65;;;6.50;99.90;;;;;;4958661;28;20123;-95
2021/12/29 03:19:59;;;;;;;112.20;20.10;;;6.60;99.90;;;;;;4959752;28;20463;-94
2021/12/29 03:22:25;;;;;;;107.53;21.23;;;6.50;99.90;;;;;;4958927;28;20394;-94
2021/12/29 03:24:50;;;;;;;105.50;19.58;;;6.60;99.90;;;;;;4959619;28;20561;-95
2021/12/29 03:27:16;;;;;;;121.93;21.75;;;6.60;99.90;;;;;;4960004;28;20129;-95
2021/12/29 03:29:41;;;;;;;113.10;22.17;;;7.10;99.90;;;;;;4958351;28;20417;-95
2021/12/29 03:32:09;;;;;;;117.25;23.15;;;6.60;99.90;;;;;;4959403;28;20046;-95
2021/12/29 03:34:35;;;;;;;130.60;23.55;;;6.60;99.90;;;;;;4959427;28;20046;-95
2021/12/29 03:37:01;;;;;;;120.22;23.17;;;6.60;99.90;;;;;;4958839;28;20046;-93
2021/12/29 03:39:27;;;;;;;109.47;22.90;;;6.70;99.90;;;;;;4959155;28;20042;-94
2021/12/29 03:41:53;;;;;;;117.68;22.42;;;7.40;99.90;;;;;;4975533;28;20046;-94
2021/12/29 03:44:19;;;;;;;124.00;24.15;;;6.70;99.90;;;;;;4975031;28;20643;-96
2021/12/29 03:46:45;;;;;;;155.02;26.40;;;6.70;99.90;;;;;;4976293;28;20050;-96
2021/12/29 03:49:11;;;;;;;136.52;25.58;;;6.60;99.90;;;;;;4983022;28;20046;-96
2021/12/29 03:51:38;;;;;;;173.98;28.00;;;6.80;99.90;;;;;;4981969;28;20038;-96
2021/12/29 03:54:05;;;;;;;148.63;28.33;;;6.70;99.90;;;;;;4965671;28;20046;-95
2021/12/29 03:56:32;;;;;;;162.10;29.83;;;6.90;99.90;;;;;;4975375;28;20050;-96
2021/12/29 03:58:58;;;;;;;154.75;29.73;;;6.70;99.90;;;;;;4974360;28;20074;-95
2021/12/29 04:01:25;;;;;;;168.45;32.05;;;6.70;99.90;;;;;;4974791;28;20073;-95
2021/12/29 04:03:52;;;;;;;161.60;33.03;;;6.70;99.90;;;;;;4991286;28;20080;-96
2021/12/29 04:06:20;;;;;;;172.23;33.30;;;6.60;99.90;;;;;;4974665;28;20506;-96
2021/12/29 04:08:48;;;;;;;185.27;34.33;;;6.70;99.90;;;;;;4973689;28;20053;-96
2021/12/29 04:11:14;;;;;;;180.65;34.00;;;6.70;99.90;;;;;;4991539;28;20047;-96
2021/12/29 04:13:40;;;;;;;170.50;33.97;;;6.70;99.90;;;;;;4989221;28;20053;-95
2021/12/29 04:16:10;;;;;;;161.35;33.50;;;6.70;99.90;;;;;;5005068;28;20053;-96
2021/12/29 04:18:55;;;;;;;155.65;31.52;;;6.70;99.90;;;;;;5014533;28;20095;-96
2021/12/29 04:21:21;;;;;;;148.07;28.30;;;6.70;99.90;;;;;;5006410;28;20132;-96
2021/12/29 04:23:47;;;;;;;142.57;29.70;;;6.80;99.90;;;;;;4999294;28;20467;-96
2021/12/29 04:26:12;;;;;;;108.50;24.80;;;6.80;99.90;;;;;;5000406;28;20049;-96
2021/12/29 04:28:38;;;;;;;139.95;28.42;;;6.80;99.90;;;;;;5001819;28;20049;-96
2021/12/29 04:31:07;;;;;;;156.95;29.38;;;6.80;99.90;;;;;;5021484;28;20049;-96
2021/12/29 04:33:35;;;;;;;162.48;28.40;;;7.20;99.90;;;;;;5025226;28;20037;-95
2021/12/29 04:36:00;;;;;;;142.95;27.38;;;6.80;99.90;;;;;;4996867;28;20503;-96
2021/12/29 04:38:26;;;;;;;139.93;26.92;;;7.20;99.90;;;;;;4997109;28;20045;-93
2021/12/29 04:41:01;;;;;;;146.27;28.70;;;7.40;99.90;;;;;;4998011;28;20132;-93
2021/12/29 04:43:27;;;;;;;148.48;27.83;;;6.80;99.90;;;;;;4996640;28;20654;-95
2021/12/29 04:45:53;;;;;;;130.18;27.20;;;6.80;99.90;;;;;;4996828;28;20081;-94
2021/12/29 04:48:20;;;;;;;106.32;25.52;;;6.60;99.90;;;;;;4996009;28;20041;-93
2021/12/29 04:51:04;;;;;;;106.90;25.48;;;6.80;99.90;;;;;;4996264;28;20041;-93
2021/12/29 04:53:30;;;;;;;119.80;28.60;;;6.80;99.90;;;;;;5013232;28;20045;-94
2021/12/29 04:55:56;;;;;;;124.60;27.80;;;6.80;99.90;;;;;;4996447;28;20045;-92
2021/12/29 04:58:23;;;;;;;111.18;27.98;;;7.50;99.90;;;;;;5012898;28;20045;-93
2021/12/29 05:00:50;;;;;;;119.03;29.92;;;6.90;99.90;;;;;;4996692;28;20068;-95
2021/12/29 05:03:26;;;;;;;138.05;30.98;;;6.80;99.90;;;;;;5008865;28;20037;-96
2021/12/29 05:05:55;;;;;;;127.10;31.10;;;6.80;99.90;;;;;;5022773;23;20185;-91
2021/12/29 05:08:28;;;;;;;145.88;31.45;;;6.80;99.90;;;;;;4976363;28;20137;-91
2021/12/29 05:10:56;;;;;;;137.15;31.30;;;7.20;99.90;;;;;;4976577;28;20069;-91
2021/12/29 05:13:22;;;;;;;153.23;33.13;;;7.60;99.90;;;;;;4974890;28;20050;-91
2021/12/29 05:15:48;;;;;;;155.75;33.60;;;6.80;99.90;;;;;;4974662;28;20046;-91
2021/12/29 05:18:13;;;;;;;157.38;33.83;;;7.60;99.90;;;;;;4974849;28;20478;-91
2021/12/29 05:20:39;;;;;;;150.27;33.50;;;7.10;99.90;;;;;;4974496;28;20573;-91
2021/12/29 05:23:05;;;;;;;162.88;33.72;;;6.80;99.90;;;;;;4974065;28;20039;-91
2021/12/29 05:25:31;;;;;;;152.95;33.65;;;7.70;99.90;;;;;;4975147;28;20490;-91
2021/12/29 05:27:57;;;;;;;168.93;34.65;;;7.60;99.90;;;;;;4974651;28;20053;-91
2021/12/29 05:30:23;;;;;;;145.25;32.88;;;7.40;99.90;;;;;;4974066;28;20193;-91
2021/12/29 05:32:49;;;;;;;138.65;32.30;;;7.50;99.90;;;;;;4974277;28;20619;-91
2021/12/29 05:35:15;;;;;;;146.85;33.42;;;6.80;99.90;;;;;;4974471;28;20137;-91
2021/12/29 05:37:42;;;;;;;144.38;33.05;;;7.20;99.90;;;;;;4974470;28;20053;-92
2021/12/29 05:40:09;;;;;;;171.15;33.55;;;6.80;99.90;;;;;;4974930;28;20046;-91
2021/12/29 05:42:35;;;;;;;160.77;33.92;;;6.80;99.90;;;;;;4976777;28;20102;-92
2021/12/29 05:45:03;;;;;;;152.38;33.30;;;6.60;99.90;;;;;;4975737;28;20132;-91
2021/12/29 05:47:29;;;;;;;180.65;34.17;;;7.60;99.90;;;;;;4974331;28;20042;-91
2021/12/29 05:49:55;;;;;;;149.85;32.80;;;7.90;99.90;;;;;;4974451;28;20057;-92
2021/12/29 05:52:20;;;;;;;167.90;33.17;;;6.70;99.90;;;;;;4973588;28;20046;-92
2021/12/29 05:54:46;;;;;;;171.32;34.88;;;6.90;99.90;;;;;;4974661;28;20049;-92
2021/12/29 05:57:12;;;;;;;178.40;34.83;;;7.30;99.90;;;;;;4974219;28;20097;-92
2021/12/29 05:59:38;;;;;;;172.07;33.47;;;6.80;99.90;;;;;;4974226;28;20050;-92
2021/12/29 06:02:04;;;;;;;144.95;30.70;;;7.10;99.90;;;;;;4974206;28;20052;-91
2021/12/29 06:04:30;;;;;;;136.43;31.45;;;7.50;99.90;;;;;;4973741;28;20137;-92
2021/12/29 06:06:56;;;;;;;130.63;31.20;;;6.60;99.90;;;;;;4977413;28;20579;-92
2021/12/29 06:09:22;;;;;;;117.88;29.58;;;6.30;99.90;;;;;;4977301;28;20045;-91
2021/12/29 06:11:47;;;;;;;124.15;29.92;;;7.40;99.90;;;;;;4976936;28;20045;-92
2021/12/29 06:14:13;;;;;;;141.82;32.13;;;6.70;99.90;;;;;;4978082;28;20034;-92
2021/12/29 06:16:38;;;;;;;108.80;29.60;;;7.20;99.90;;;;;;4976335;28;20049;-92
2021/12/29 06:19:04;;;;;;;129.63;31.80;;;7.60;99.90;;;;;;4976261;28;20176;-92
2021/12/29 06:21:30;;;;;;;114.13;31.00;;;7.50;99.90;;;;;;4977535;28;20037;-92
2021/12/29 06:23:56;;;;;;;127.78;31.83;;;6.80;99.90;;;;;;4979052;28;20148;-92
2021/12/29 06:26:21;;;;;;;125.50;31.42;;;7.50;99.90;;;;;;4978570;28;20045;-92
2021/12/29 06:28:48;;;;;;;126.20;31.73;;;7.50;99.90;;;;;;4978656;28;20221;-92
2021/12/29 06:31:14;;;;;;;135.43;32.10;;;7.10;99.90;;;;;;4977640;28;20034;-92
2021/12/29 06:33:40;;;;;;;150.88;33.40;;;6.90;99.90;;;;;;4980384;28;20042;-92
2021/12/29 06:36:06;;;;;;;133.65;33.28;;;7.80;99.90;;;;;;4980905;28;20518;-92
2021/12/29 06:38:34;;;;;;;174.13;35.53;;;6.90;99.90;;;;;;4980764;28;20092;-92
2021/12/29 06:41:00;;;;;;;142.48;33.60;;;7.60;99.90;;;;;;4980173;28;20157;-91
2021/12/29 06:43:26;;;;;;;130.95;33.53;;;7.50;99.90;;;;;;4981066;28;20072;-91
2021/12/29 06:45:51;;;;;;;148.85;34.08;;;8.00;99.90;;;;;;4981061;28;20714;-92
2021/12/29 06:48:17;;;;;;;141.25;34.17;;;7.70;99.90;;;;;;4980578;28;20128;-92
2021/12/29 06:50:43;;;;;;;146.32;33.55;;;6.90;99.90;;;;;;4980747;28;20037;-91
2021/12/29 06:53:09;;;;;;;147.95;33.25;;;7.10;99.90;;;;;;4982273;28;20065;-91
2021/12/29 06:55:34;;;;;;;153.73;33.92;;;7.90;99.90;;;;;;4981826;28;20042;-91
2021/12/29 06:58:00;;;;;;;148.93;34.17;;;7.60;99.90;;;;;;4980625;28;20057;-92
2021/12/29 07:00:26;;;;;;;175.90;35.83;;;7.40;99.90;;;;;;4979741;28;20049;-92
2021/12/29 07:02:51;;;;;;;172.00;35.00;;;7.80;99.90;;;;;;4980525;28;20045;-91
2021/12/29 07:05:17;;;;;;;163.18;35.55;;;6.90;99.90;;;;;;4976744;28;20088;-92
2021/12/29 07:07:46;;;;;;;192.48;37.13;;;7.40;99.90;;;;;;4971242;28;20518;-91
2021/12/29 07:10:14;;;;;;;176.05;35.20;;;7.30;99.90;;;;;;4958245;28;20050;-93
2021/12/29 07:12:39;;;;;;;173.95;35.40;;;8.00;99.90;;;;;;4958069;28;20142;-91
2021/12/29 07:15:06;;;;;;;149.20;33.25;;;7.60;99.90;;;;;;4957753;28;20058;-91
2021/12/29 07:17:31;;;;;;;160.45;32.63;;;7.00;99.90;;;;;;4958275;28;20057;-91
2021/12/29 07:19:57;;;;;;;144.13;32.83;;;7.40;99.90;;;;;;4958303;28;20043;-91
2021/12/29 07:22:23;;;;;;;156.13;32.05;;;7.10;99.90;;;;;;4957083;28;20047;-91
2021/12/29 07:24:49;;;;;;;180.40;34.85;;;7.00;99.90;;;;;;4957797;28;20053;-92
2021/12/29 07:27:15;;;;;;;153.88;32.72;;;7.70;99.90;;;;;;4957961;28;20054;-93
2021/12/29 07:30:05;;;;;;;179.85;35.88;;;7.00;99.90;;;;;;4959197;28;20054;-94
2021/12/29 07:32:49;;;;;;;154.70;32.63;;;7.00;99.90;;;;;;4958375;28;20133;-94
2021/12/29 07:36:17;;;;;;;178.32;33.85;;;7.00;99.90;;;;;;4958991;28;20137;-94
2021/12/29 07:38:44;;;;;;;196.93;36.10;;;7.00;99.90;;;;;;4940602;28;20048;-89
2021/12/29 07:41:30;;;;;;;228.43;37.45;;;8.00;99.90;;;;;;4967058;28;20101;-95
2021/12/29 07:44:25;;;;;;;265.15;38.90;;;6.80;99.90;;;;;;4988050;28;20096;-93
2021/12/29 07:47:25;;;;;;;298.38;40.20;;;7.00;99.90;;;;;;4973790;28;20102;-94
2021/12/29 07:50:07;;;;;;;;;;;;;;;;;;;;;
2021/12/29 07:52:49;;;;;;;277.70;39.70;;;6.90;99.90;;;;;;4981261;28;20035;-93
2021/12/29 07:59:38;;;;;;;;;;;;;;;;;;;;;
2021/12/29 08:02:10;;;;;;;194.00;34.03;;;6.70;99.90;;;;;;4966264;28;20050;-94
2021/12/29 08:04:48;;;;;;;223.38;35.53;;;7.40;99.90;;;;;;4975211;28;20053;-91
2021/12/29 08:07:27;;;;;;;191.27;33.25;;;7.80;99.90;;;;;;4968240;28;20062;-94
2021/12/29 08:09:52;;;;;;;180.18;32.10;;;6.90;99.90;;;;;;4977767;28;20050;-91
2021/12/29 08:12:19;;;;;;;207.93;34.17;;;7.80;99.90;;;;;;4973241;28;20490;-92
2021/12/29 08:14:47;;;;;;;203.40;34.17;;;7.00;99.90;;;;;;4965201;28;20042;-96
2021/12/29 08:17:13;;;;;;;201.38;31.38;;;7.00;99.90;;;;;;4972871;28;20147;-93
2021/12/29 08:19:39;;;;;;;156.02;31.85;;;7.40;99.90;;;;;;4958502;28;20043;-93
2021/12/29 08:22:05;;;;;;;183.68;31.58;;;7.00;99.90;;;;;;4971661;28;20607;-93
2021/12/29 08:24:31;;;;;;;185.05;33.20;;;7.00;99.90;;;;;;4972668;28;20129;-94
2021/12/29 08:26:56;;;;;;;159.45;30.10;;;7.00;99.90;;;;;;4975036;28;20065;-94
2021/12/29 08:29:22;;;;;;;181.63;31.25;;;8.00;99.90;;;;;;4976110;28;20086;-94
2021/12/29 08:31:48;;;;;;;174.30;30.38;;;8.00;99.90;;;;;;4975289;28;20148;-93
2021/12/29 08:34:15;;;;;;;158.65;29.77;;;7.00;99.90;;;;;;4975641;28;20046;-94
2021/12/29 08:36:41;;;;;;;145.60;27.50;;;7.00;99.90;;;;;;4976967;28;20042;-93
2021/12/29 08:39:07;;;;;;;189.68;30.60;;;8.10;99.90;;;;;;4963324;28;20055;-93
2021/12/29 08:41:33;;;;;;;187.57;30.25;;;7.80;99.90;;;;;;4962156;28;20030;-93
2021/12/29 08:43:59;;;;;;;158.23;28.83;;;7.10;99.90;;;;;;4975072;28;20050;-93
2021/12/29 08:46:25;;;;;;;162.85;28.73;;;7.00;99.90;;;;;;4974581;28;20398;-93
2021/12/29 08:48:51;;;;;;;126.78;25.13;;;7.40;99.90;;;;;;4972698;28;20049;-93
2021/12/29 08:51:19;;;;;;;143.98;27.48;;;7.30;99.90;;;;;;4976826;28;20046;-93
2021/12/29 08:53:46;;;;;;;137.38;27.13;;;8.00;99.90;;;;;;4975281;28;20133;-94
2021/12/29 08:56:14;;;;;;;147.25;27.70;;;7.50;99.90;;;;;;4973990;28;20038;-94
2021/12/29 08:58:40;;;;;;;131.13;27.02;;;7.50;99.90;;;;;;4966692;28;20038;-94
2021/12/29 09:01:06;;;;;;;148.15;28.27;;;7.20;99.90;;;;;;4974381;28;20523;-93
2021/12/29 09:03:31;;;;;;;143.35;28.55;;;7.20;99.90;;;;;;4976213;28;20042;-94
2021/12/29 09:05:57;;;;;;;122.75;25.85;;;7.20;99.90;;;;;;4982821;28;20528;-93
2021/12/29 09:08:23;;;;;;;140.63;27.88;;;7.50;99.90;;;;;;4973485;28;20056;-93
2021/12/29 09:10:49;;;;;;;114.65;25.20;;;7.20;99.90;;;;;;4961613;28;20042;-94
2021/12/29 09:13:15;;;;;;;130.23;27.60;;;7.90;99.90;;;;;;4962139;28;20125;-94
2021/12/29 09:15:42;;;;;;;108.03;24.60;;;7.20;99.90;;;;;;4959949;28;20073;-94
2021/12/29 09:18:07;;;;;;;120.90;26.42;;;7.20;99.90;;;;;;4971069;28;20077;-94
2021/12/29 09:20:36;;;;;;;137.70;25.75;;;7.80;99.90;;;;;;4978180;28;20073;-94
2021/12/29 09:23:06;;;;;;;138.02;26.33;;;7.30;99.90;;;;;;4973437;28;20085;-96
2021/12/29 09:25:34;;;;;;;133.15;25.90;;;7.90;99.90;;;;;;4972274;28;20034;-94
2021/12/29 09:28:00;;;;;;;156.63;26.35;;;7.90;99.90;;;;;;4977193;28;20054;-93
2021/12/29 09:30:29;;;;;;;150.10;27.08;;;7.30;99.90;;;;;;4977293;28;20044;-92
2021/12/29 09:32:55;;;;;;;178.05;27.75;;;7.50;99.90;;;;;;4974530;28;20038;-92
2021/12/29 09:35:22;;;;;;;176.68;27.40;;;7.40;99.90;;;;;;4964366;28;20443;-93
2021/12/29 09:37:49;;;;;;;233.85;30.30;;;7.40;99.90;;;;;;4972497;28;20050;-94
2021/12/29 09:40:17;;;;;;;238.15;30.88;;;8.20;99.90;;;;;;4967991;28;20034;-90
2021/12/29 09:42:44;;;;;;;202.73;28.80;;;7.40;99.90;;;;;;4977261;28;20041;-91
2021/12/29 09:45:10;;;;;;;184.80;28.40;;;8.10;99.90;;;;;;4974464;28;20050;-91
2021/12/29 09:47:36;;;;;;;204.75;27.38;;;7.40;99.90;;;;;;4968040;28;20042;-91
2021/12/29 09:50:07;;;;;;;222.25;28.45;;;7.50;99.90;;;;;;4969582;28;20038;-92
2021/12/29 09:52:33;;;;;;;208.02;27.50;;;7.50;99.90;;;;;;4961198;28;20597;-91
2021/12/29 09:55:04;;;;;;;242.93;28.08;;;7.50;99.90;;;;;;4969044;28;20038;-91
2021/12/29 09:57:32;;;;;;;191.85;24.98;;;8.40;99.90;;;;;;4962640;28;20054;-91
2021/12/29 09:59:58;;;;;;;207.40;27.25;;;8.30;99.90;;;;;;4960139;28;20077;-92
2021/12/29 10:02:23;;;;;;;232.63;27.48;;;7.80;99.90;;;;;;4978741;28;20050;-90
2021/12/29 10:04:49;;;;;;;215.93;26.88;;;8.50;99.90;;;;;;4968947;28;20042;-91
2021/12/29 10:07:18;;;;;;;282.27;30.02;;;8.30;99.90;;;;;;4971657;28;20344;-91
2021/12/29 10:09:45;;;;;;;261.33;27.90;;;7.90;99.90;;;;;;4978685;28;20043;-91
2021/12/29 10:12:19;;;;;;;241.20;27.23;;;7.60;99.90;;;;;;4978665;28;20086;-91
2021/12/29 10:14:52;;;;;;;211.57;26.45;;;7.60;99.90;;;;;;4978099;28;20049;-91
2021/12/29 10:17:18;;;;;;;;;;;7.60;99.90;;;;;;4958863;28;20134;-92
2021/12/29 10:24:16;;;;;;;131.77;22.42;;;7.00;99.90;;;;;;4945270;28;20549;-93
2021/12/29 10:27:09;;;;;;;124.13;20.85;;;7.70;99.90;;;;;;4960628;28;20047;-92
2021/12/29 10:30:40;;;;;;;115.68;21.45;;;7.70;99.90;;;;;;4969788;28;20116;-92
2021/12/29 10:34:13;;;;;;;111.07;21.63;;;7.50;99.90;;;;;;4978899;28;20052;-92
2021/12/29 10:37:09;;;;;;;101.95;21.25;;;7.80;99.90;;;;;;4950011;28;20509;-92
2021/12/29 10:40:14;;;;;;;99.53;19.88;;;7.80;99.90;;;;;;4971605;28;20090;-92
2021/12/29 10:43:28;;;;;;;95.07;19.88;;;7.80;99.90;;;;;;4977495;28;20510;-93
2021/12/29 10:46:45;;;;;;;79.60;18.08;;;7.80;99.90;;;;;;4987131;28;20050;-92
2021/12/29 10:49:49;;;;;;;67.57;16.95;;;7.80;99.90;;;;;;4927803;28;20054;-92
2021/12/29 10:55:51;;;;;;;54.38;16.40;;;7.80;99.90;;;;;;4974837;28;20050;-92
2021/12/29 10:58:34;;;;;;;61.28;16.08;;;7.80;99.90;;;;;;4958852;28;20058;-92
2021/12/29 11:01:50;;;;;;;49.10;15.00;;;7.70;99.90;;;;;;4936665;28;20058;-93
2021/12/29 11:06:00;;;;;;;;;;;;;;;;;;;;;
2021/12/29 11:11:11;;;;;;;59.50;16.25;;;7.60;99.90;;;;;;4974566;28;20057;-92
2021/12/29 11:14:25;;;;;;;61.08;16.85;;;8.60;99.90;;;;;;4975688;28;20113;-93
2021/12/29 11:17:36;;;;;;;55.75;16.30;;;7.80;99.90;;;;;;4944759;28;20510;-93
2021/12/29 11:20:46;;;;;;;49.25;16.98;;;7.80;99.90;;;;;;4954538;28;20043;-93
2021/12/29 11:27:13;;;;;;;48.50;14.05;;;7.80;99.90;;;;;;4958991;28;20109;-93
2021/12/29 11:36:21;;;;;;;41.40;13.45;;;8.20;99.90;;;;;;5033448;23;20121;-96
2021/12/29 11:38:47;;;;;;;50.33;13.98;;;7.80;99.90;;;;;;5014852;28;20128;-93
2021/12/29 11:41:17;;;;;;;42.53;13.30;;;7.80;99.90;;;;;;4998187;28;20045;-92
2021/12/29 11:43:44;;;;;;;44.17;12.80;;;8.60;99.90;;;;;;5005264;28;20068;-92
2021/12/29 11:46:10;;;;;;;41.80;13.93;;;8.60;99.90;;;;;;5004047;28;20046;-95
2021/12/29 11:48:36;;;;;;;39.78;13.32;;;8.50;99.90;;;;;;4999234;28;20060;-94
2021/12/29 11:51:03;;;;;;;42.50;14.73;;;7.90;99.90;;;;;;4998176;28;20049;-94
2021/12/29 11:53:33;;;;;;;44.80;13.70;;;7.80;99.90;;;;;;5011738;28;20042;-93
2021/12/29 11:56:06;;;;;;;50.85;13.93;;;7.90;99.90;;;;;;4994893;28;20089;-96
2021/12/29 11:58:36;;;;;;;65.43;15.45;;;8.70;99.90;;;;;;4976694;28;20524;-96
2021/12/29 12:01:07;;;;;;;43.25;14.38;;;8.50;99.90;;;;;;4999168;28;20044;-94
2021/12/29 12:03:40;;;;;;;50.85;16.00;;;8.60;99.90;;;;;;4994373;28;20034;-92
2021/12/29 12:06:06;;;;;;;;;;;7.80;99.90;;;;;;4995766;28;20041;-95
2021/12/29 12:08:32;;;;;;;37.28;13.57;;;7.90;99.90;;;;;;4995164;28;19925;-94
2021/12/29 12:11:00;;;;;;;54.70;15.23;;;8.40;99.90;;;;;;4994902;28;20107;-91
2021/12/29 12:13:32;;;;;;;47.08;14.75;;;7.90;99.90;;;;;;4995282;28;20746;-91
2021/12/29 12:16:08;;;;;;;52.20;14.25;;;7.90;99.90;;;;;;4994334;28;20049;-91
2021/12/29 12:18:49;;;;;;;36.42;13.15;;;7.90;99.90;;;;;;4994063;28;20156;-90
2021/12/29 12:21:20;;;;;;;49.22;13.55;;;7.90;99.90;;;;;;4995292;28;20124;-89
2021/12/29 12:23:46;;;;;;;45.85;13.20;;;7.90;99.90;;;;;;4994446;28;20057;-91
2021/12/29 12:26:12;;;;;;;46.88;12.57;;;8.10;99.90;;;;;;4996175;28;20045;-92
2021/12/29 12:28:48;;;;;;;49.67;14.02;;;8.00;99.90;;;;;;4994144;28;20132;-91
2021/12/29 12:31:24;;;;;;;44.05;11.95;;;8.00;99.90;;;;;;4975956;28;20041;-91
2021/12/29 12:33:50;;;;;;;46.28;13.77;;;8.20;99.90;;;;;;4975375;28;20061;-92
2021/12/29 12:36:16;;;;;;;42.08;11.07;;;8.70;99.90;;;;;;4974339;28;20054;-91
2021/12/29 12:38:43;;;;;;;35.67;11.32;;;8.00;99.90;;;;;;4992528;28;20067;-95
2021/12/29 12:41:12;;;;;;;35.30;11.38;;;8.00;99.90;;;;;;4974836;28;20535;-90
2021/12/29 12:43:52;;;;;;;36.47;11.48;;;8.00;99.90;;;;;;4975403;28;20049;-91
2021/12/29 12:46:34;;;;;;;47.63;13.15;;;8.00;99.90;;;;;;4974707;28;20137;-91
2021/12/29 12:49:12;;;;;;;45.78;12.30;;;8.00;99.90;;;;;;4990835;28;20046;-91
2021/12/29 12:51:38;;;;;;;31.98;10.02;;;8.80;99.90;;;;;;4974547;28;20060;-88
2021/12/29 12:54:18;;;;;;;43.72;10.38;;;8.00;99.90;;;;;;4973491;28;20046;-89
2021/12/29 12:56:46;;;;;;;37.00;9.93;;;8.00;99.90;;;;;;4974348;28;20060;-93
2021/12/29 12:59:13;;;;;;;31.50;10.40;;;8.80;99.90;;;;;;4983470;28;20052;-90
2021/12/29 13:01:45;;;;;;;42.95;10.23;;;8.00;99.90;;;;;;4977406;28;20053;-89
2021/12/29 13:04:13;;;;;;;32.22;10.27;;;8.00;99.90;;;;;;4974451;28;20073;-93
2021/12/29 13:06:50;;;;;;;31.08;9.45;;;8.00;99.90;;;;;;4991033;28;20137;-94
2021/12/29 13:09:19;;;;;;;33.67;9.45;;;7.90;99.90;;;;;;4974374;28;20104;-88
2021/12/29 13:11:45;;;;;;;38.45;8.93;;;8.50;99.90;;;;;;4985059;28;20037;-86
2021/12/29 13:14:11;;;;;;;35.53;9.60;;;8.70;99.90;;;;;;4994321;28;20056;-92